sensor_id;sensor_type;location;lat;lon;timestamp;P1;durP1;ratioP1;P2;durP2;ratioP2
56911;SDS011;42800;53.928;27.662;2023-04-01T00:02:18;56.60;;;22.05;;
56911;SDS011;42800;53.928;27.662;2023-04-01T00:04:44;74.75;;;20.85;;
56911;SDS011;42800;53.928;27.662;2023-04-01T00:07:10;48.53;;;18.88;;
56911;SDS011;42800;53.928;27.662;2023-04-01T00:09:36;61.70;;;20.48;;
56911;SDS011;42800;53.928;27.662;2023-04-01T00:12:02;42.45;;;17.23;;
56911;SDS011;42800;53.928;27.662;2023-04-01T00:14:29;35.25;;;17.17;;
56911;SDS011;42800;53.928;27.662;2023-04-01T00:16:55;51.22;;;18.20;;
56911;SDS011;42800;53.928;27.662;2023-04-01T00:19:21;63.85;;;18.75;;
56911;SDS011;42800;53.928;27.662;2023-04-01T00:21:47;39.72;;;17.15;;
56911;SDS011;42800;53.928;27.662;2023-04-01T00:24:13;47.92;;;17.23;;
56911;SDS011;42800;53.928;27.662;2023-04-01T00:26:39;50.00;;;18.15;;
56911;SDS011;42800;53.928;27.662;2023-04-01T00:29:07;59.72;;;18.90;;
56911;SDS011;42800;53.928;27.662;2023-04-01T00:31:33;45.65;;;17.40;;
56911;SDS011;42800;53.928;27.662;2023-04-01T00:33:59;39.08;;;17.92;;
56911;SDS011;42800;53.928;27.662;2023-04-01T00:36:25;35.67;;;17.55;;
56911;SDS011;42800;53.928;27.662;2023-04-01T00:38:51;60.15;;;18.42;;
56911;SDS011;42800;53.928;27.662;2023-04-01T00:41:18;30.88;;;17.25;;
56911;SDS011;42800;53.928;27.662;2023-04-01T00:43:47;43.67;;;17.35;;
56911;SDS011;42800;53.928;27.662;2023-04-01T00:46:14;41.60;;;17.05;;
56911;SDS011;42800;53.928;27.662;2023-04-01T00:48:41;34.97;;;16.73;;
56911;SDS011;42800;53.928;27.662;2023-04-01T00:51:14;37.92;;;16.38;;
56911;SDS011;42800;53.928;27.662;2023-04-01T00:53:44;35.47;;;15.93;;
56911;SDS011;42800;53.928;27.662;2023-04-01T00:56:13;30.58;;;15.98;;
56911;SDS011;42800;53.928;27.662;2023-04-01T00:58:43;40.30;;;16.65;;
56911;SDS011;42800;53.928;27.662;2023-04-01T01:01:13;38.00;;;16.42;;
56911;SDS011;42800;53.928;27.662;2023-04-01T01:03:41;38.25;;;16.63;;
56911;SDS011;42800;53.928;27.662;2023-04-01T01:06:11;41.35;;;15.80;;
56911;SDS011;42800;53.928;27.662;2023-04-01T01:09:02;44.65;;;17.63;;
56911;SDS011;42800;53.928;27.662;2023-04-01T01:11:40;61.97;;;16.80;;
56911;SDS011;42800;53.928;27.662;2023-04-01T01:14:14;42.17;;;16.13;;
56911;SDS011;42800;53.928;27.662;2023-04-01T01:16:50;42.47;;;16.27;;
56911;SDS011;42800;53.928;27.662;2023-04-01T01:19:32;84.40;;;18.30;;
56911;SDS011;42800;53.928;27.662;2023-04-01T01:22:26;51.95;;;17.40;;
56911;SDS011;42800;53.928;27.662;2023-04-01T01:25:18;37.15;;;17.15;;
56911;SDS011;42800;53.928;27.662;2023-04-01T01:27:58;56.22;;;16.98;;
56911;SDS011;42800;53.928;27.662;2023-04-01T01:30:42;39.20;;;17.10;;
56911;SDS011;42800;53.928;27.662;2023-04-01T01:33:25;48.60;;;16.98;;
56911;SDS011;42800;53.928;27.662;2023-04-01T01:36:02;58.63;;;17.20;;
56911;SDS011;42800;53.928;27.662;2023-04-01T01:38:32;54.08;;;16.05;;
56911;SDS011;42800;53.928;27.662;2023-04-01T01:41:00;38.97;;;16.83;;
56911;SDS011;42800;53.928;27.662;2023-04-01T01:43:29;61.97;;;16.25;;
56911;SDS011;42800;53.928;27.662;2023-04-01T01:45:58;57.13;;;14.85;;
56911;SDS011;42800;53.928;27.662;2023-04-01T01:48:28;58.08;;;15.13;;
56911;SDS011;42800;53.928;27.662;2023-04-01T01:50:56;52.08;;;14.75;;
56911;SDS011;42800;53.928;27.662;2023-04-01T01:53:23;40.90;;;16.60;;
56911;SDS011;42800;53.928;27.662;2023-04-01T01:55:49;44.35;;;17.10;;
56911;SDS011;42800;53.928;27.662;2023-04-01T01:58:16;58.95;;;16.50;;
56911;SDS011;42800;53.928;27.662;2023-04-01T02:00:46;70.20;;;16.08;;
56911;SDS011;42800;53.928;27.662;2023-04-01T02:03:15;40.03;;;15.30;;
56911;SDS011;42800;53.928;27.662;2023-04-01T02:05:45;53.35;;;19.08;;
56911;SDS011;42800;53.928;27.662;2023-04-01T02:08:12;78.93;;;18.13;;
56911;SDS011;42800;53.928;27.662;2023-04-01T02:10:43;105.88;;;19.23;;
56911;SDS011;42800;53.928;27.662;2023-04-01T02:13:15;80.50;;;18.65;;
56911;SDS011;42800;53.928;27.662;2023-04-01T02:15:46;60.42;;;17.05;;
56911;SDS011;42800;53.928;27.662;2023-04-01T02:18:15;72.35;;;17.15;;
56911;SDS011;42800;53.928;27.662;2023-04-01T02:20:43;43.97;;;16.75;;
56911;SDS011;42800;53.928;27.662;2023-04-01T02:23:10;121.65;;;18.02;;
56911;SDS011;42800;53.928;27.662;2023-04-01T02:25:37;65.80;;;17.58;;
56911;SDS011;42800;53.928;27.662;2023-04-01T02:28:06;61.80;;;15.25;;
56911;SDS011;42800;53.928;27.662;2023-04-01T02:30:34;53.97;;;15.45;;
56911;SDS011;42800;53.928;27.662;2023-04-01T02:33:03;54.92;;;14.75;;
56911;SDS011;42800;53.928;27.662;2023-04-01T02:35:30;57.47;;;14.80;;
56911;SDS011;42800;53.928;27.662;2023-04-01T02:37:59;55.03;;;16.63;;
56911;SDS011;42800;53.928;27.662;2023-04-01T02:40:25;92.68;;;17.52;;
56911;SDS011;42800;53.928;27.662;2023-04-01T02:42:51;44.58;;;16.52;;
56911;SDS011;42800;53.928;27.662;2023-04-01T02:45:18;52.17;;;15.57;;
56911;SDS011;42800;53.928;27.662;2023-04-01T02:47:44;59.80;;;16.77;;
56911;SDS011;42800;53.928;27.662;2023-04-01T02:50:10;57.00;;;16.92;;
56911;SDS011;42800;53.928;27.662;2023-04-01T02:52:36;37.63;;;15.50;;
56911;SDS011;42800;53.928;27.662;2023-04-01T02:55:02;39.85;;;16.58;;
56911;SDS011;42800;53.928;27.662;2023-04-01T02:57:29;63.30;;;17.38;;
56911;SDS011;42800;53.928;27.662;2023-04-01T02:59:55;47.58;;;15.75;;
56911;SDS011;42800;53.928;27.662;2023-04-01T03:02:22;51.30;;;15.68;;
56911;SDS011;42800;53.928;27.662;2023-04-01T03:04:48;48.80;;;15.82;;
56911;SDS011;42800;53.928;27.662;2023-04-01T03:07:13;74.60;;;16.98;;
56911;SDS011;42800;53.928;27.662;2023-04-01T03:09:39;53.33;;;16.23;;
56911;SDS011;42800;53.928;27.662;2023-04-01T03:12:05;66.57;;;14.68;;
56911;SDS011;42800;53.928;27.662;2023-04-01T03:14:31;35.53;;;14.57;;
56911;SDS011;42800;53.928;27.662;2023-04-01T03:16:57;97.72;;;18.63;;
56911;SDS011;42800;53.928;27.662;2023-04-01T03:19:24;39.55;;;16.55;;
56911;SDS011;42800;53.928;27.662;2023-04-01T03:21:50;56.03;;;15.02;;
56911;SDS011;42800;53.928;27.662;2023-04-01T03:24:16;37.30;;;14.73;;
56911;SDS011;42800;53.928;27.662;2023-04-01T03:26:42;69.70;;;17.40;;
56911;SDS011;42800;53.928;27.662;2023-04-01T03:29:07;54.00;;;17.35;;
56911;SDS011;42800;53.928;27.662;2023-04-01T03:31:33;63.90;;;17.02;;
56911;SDS011;42800;53.928;27.662;2023-04-01T03:33:59;62.20;;;19.45;;
56911;SDS011;42800;53.928;27.662;2023-04-01T03:36:26;57.10;;;17.20;;
56911;SDS011;42800;53.928;27.662;2023-04-01T03:38:52;36.67;;;15.93;;
56911;SDS011;42800;53.928;27.662;2023-04-01T03:41:18;112.38;;;16.92;;
56911;SDS011;42800;53.928;27.662;2023-04-01T03:43:44;58.45;;;15.23;;
56911;SDS011;42800;53.928;27.662;2023-04-01T03:46:10;107.15;;;17.13;;
56911;SDS011;42800;53.928;27.662;2023-04-01T03:48:36;154.55;;;16.63;;
56911;SDS011;42800;53.928;27.662;2023-04-01T03:51:06;107.35;;;14.40;;
56911;SDS011;42800;53.928;27.662;2023-04-01T03:53:33;74.38;;;15.98;;
56911;SDS011;42800;53.928;27.662;2023-04-01T03:56:02;215.70;;;16.15;;
56911;SDS011;42800;53.928;27.662;2023-04-01T03:58:29;105.45;;;13.93;;
56911;SDS011;42800;53.928;27.662;2023-04-01T04:00:55;51.03;;;15.43;;
56911;SDS011;42800;53.928;27.662;2023-04-01T04:03:21;73.28;;;19.38;;
56911;SDS011;42800;53.928;27.662;2023-04-01T04:05:48;52.08;;;15.65;;
56911;SDS011;42800;53.928;27.662;2023-04-01T04:08:14;54.10;;;14.23;;
56911;SDS011;42800;53.928;27.662;2023-04-01T04:10:41;97.50;;;15.07;;
56911;SDS011;42800;53.928;27.662;2023-04-01T04:13:08;146.65;;;16.48;;
56911;SDS011;42800;53.928;27.662;2023-04-01T04:15:34;65.85;;;14.75;;
56911;SDS011;42800;53.928;27.662;2023-04-01T04:18:00;50.40;;;14.57;;
56911;SDS011;42800;53.928;27.662;2023-04-01T04:20:26;117.43;;;16.88;;
56911;SDS011;42800;53.928;27.662;2023-04-01T04:22:52;92.43;;;16.42;;
56911;SDS011;42800;53.928;27.662;2023-04-01T04:25:18;52.90;;;14.30;;
56911;SDS011;42800;53.928;27.662;2023-04-01T04:27:45;55.17;;;14.18;;
56911;SDS011;42800;53.928;27.662;2023-04-01T04:30:11;56.58;;;13.57;;
56911;SDS011;42800;53.928;27.662;2023-04-01T04:32:37;58.67;;;13.57;;
56911;SDS011;42800;53.928;27.662;2023-04-01T04:35:06;131.50;;;15.48;;
56911;SDS011;42800;53.928;27.662;2023-04-01T04:37:32;91.45;;;14.73;;
56911;SDS011;42800;53.928;27.662;2023-04-01T04:39:58;43.38;;;12.50;;
56911;SDS011;42800;53.928;27.662;2023-04-01T04:42:24;69.05;;;14.27;;
56911;SDS011;42800;53.928;27.662;2023-04-01T04:44:50;101.50;;;14.38;;
56911;SDS011;42800;53.928;27.662;2023-04-01T04:47:16;86.57;;;14.07;;
56911;SDS011;42800;53.928;27.662;2023-04-01T04:49:45;72.32;;;14.05;;
56911;SDS011;42800;53.928;27.662;2023-04-01T04:52:11;28.52;;;13.05;;
56911;SDS011;42800;53.928;27.662;2023-04-01T04:54:37;73.03;;;15.52;;
56911;SDS011;42800;53.928;27.662;2023-04-01T04:57:03;78.90;;;13.65;;
56911;SDS011;42800;53.928;27.662;2023-04-01T04:59:29;39.60;;;14.10;;
56911;SDS011;42800;53.928;27.662;2023-04-01T05:01:56;72.88;;;14.65;;
56911;SDS011;42800;53.928;27.662;2023-04-01T05:04:22;154.60;;;16.40;;
56911;SDS011;42800;53.928;27.662;2023-04-01T05:06:48;42.67;;;13.55;;
56911;SDS011;42800;53.928;27.662;2023-04-01T05:09:14;41.08;;;13.18;;
56911;SDS011;42800;53.928;27.662;2023-04-01T05:11:40;127.93;;;15.05;;
56911;SDS011;42800;53.928;27.662;2023-04-01T05:14:11;58.78;;;13.50;;
56911;SDS011;42800;53.928;27.662;2023-04-01T05:16:37;46.72;;;13.55;;
56911;SDS011;42800;53.928;27.662;2023-04-01T05:19:04;57.22;;;13.45;;
56911;SDS011;42800;53.928;27.662;2023-04-01T05:21:35;40.50;;;13.82;;
56911;SDS011;42800;53.928;27.662;2023-04-01T05:24:01;90.63;;;13.63;;
56911;SDS011;42800;53.928;27.662;2023-04-01T05:26:27;55.83;;;10.18;;
56911;SDS011;42800;53.928;27.662;2023-04-01T05:28:53;50.38;;;10.90;;
56911;SDS011;42800;53.928;27.662;2023-04-01T05:31:19;27.50;;;9.98;;
56911;SDS011;42800;53.928;27.662;2023-04-01T05:33:44;33.00;;;11.23;;
56911;SDS011;42800;53.928;27.662;2023-04-01T05:36:12;21.45;;;10.07;;
56911;SDS011;42800;53.928;27.662;2023-04-01T05:38:42;25.63;;;9.98;;
56911;SDS011;42800;53.928;27.662;2023-04-01T05:41:10;16.15;;;9.20;;
56911;SDS011;42800;53.928;27.662;2023-04-01T05:43:36;25.75;;;11.27;;
56911;SDS011;42800;53.928;27.662;2023-04-01T05:46:02;24.00;;;11.32;;
56911;SDS011;42800;53.928;27.662;2023-04-01T05:48:29;41.60;;;12.02;;
56911;SDS011;42800;53.928;27.662;2023-04-01T05:50:55;24.60;;;11.05;;
56911;SDS011;42800;53.928;27.662;2023-04-01T05:53:21;17.80;;;10.10;;
56911;SDS011;42800;53.928;27.662;2023-04-01T05:55:47;66.35;;;9.73;;
56911;SDS011;42800;53.928;27.662;2023-04-01T05:58:13;19.10;;;9.00;;
56911;SDS011;42800;53.928;27.662;2023-04-01T06:00:39;92.45;;;10.98;;
56911;SDS011;42800;53.928;27.662;2023-04-01T06:03:05;62.63;;;9.63;;
56911;SDS011;42800;53.928;27.662;2023-04-01T06:05:35;19.65;;;8.75;;
56911;SDS011;42800;53.928;27.662;2023-04-01T06:08:08;52.22;;;8.55;;
56911;SDS011;42800;53.928;27.662;2023-04-01T06:10:38;46.97;;;8.38;;
56911;SDS011;42800;53.928;27.662;2023-04-01T06:13:16;12.68;;;8.50;;
56911;SDS011;42800;53.928;27.662;2023-04-01T06:15:57;21.58;;;9.10;;
56911;SDS011;42800;53.928;27.662;2023-04-01T06:21:28;17.83;;;9.80;;
56911;SDS011;42800;53.928;27.662;2023-04-01T06:24:13;15.70;;;9.43;;
56911;SDS011;42800;53.928;27.662;2023-04-01T06:27:00;35.20;;;10.15;;
56911;SDS011;42800;53.928;27.662;2023-04-01T06:29:41;15.50;;;9.20;;
56911;SDS011;42800;53.928;27.662;2023-04-01T06:32:19;17.08;;;9.18;;
56911;SDS011;42800;53.928;27.662;2023-04-01T06:35:06;24.95;;;9.32;;
56911;SDS011;42800;53.928;27.662;2023-04-01T06:40:49;24.67;;;10.05;;
56911;SDS011;42800;53.928;27.662;2023-04-01T06:43:35;15.98;;;9.38;;
56911;SDS011;42800;53.928;27.662;2023-04-01T06:46:13;19.30;;;10.30;;
56911;SDS011;42800;53.928;27.662;2023-04-01T06:49:00;22.67;;;9.85;;
56911;SDS011;42800;53.928;27.662;2023-04-01T06:51:34;23.85;;;9.43;;
56911;SDS011;42800;53.928;27.662;2023-04-01T06:54:10;27.20;;;11.43;;
56911;SDS011;42800;53.928;27.662;2023-04-01T06:56:42;19.85;;;10.10;;
56911;SDS011;42800;53.928;27.662;2023-04-01T06:59:13;18.05;;;9.10;;
56911;SDS011;42800;53.928;27.662;2023-04-01T07:01:44;21.63;;;9.20;;
56911;SDS011;42800;53.928;27.662;2023-04-01T07:04:14;18.48;;;10.75;;
56911;SDS011;42800;53.928;27.662;2023-04-01T07:06:43;23.90;;;9.18;;
56911;SDS011;42800;53.928;27.662;2023-04-01T07:09:15;24.27;;;11.93;;
56911;SDS011;42800;53.928;27.662;2023-04-01T07:11:44;23.02;;;10.70;;
56911;SDS011;42800;53.928;27.662;2023-04-01T07:14:13;25.73;;;11.02;;
56911;SDS011;42800;53.928;27.662;2023-04-01T07:16:46;34.05;;;13.88;;
56911;SDS011;42800;53.928;27.662;2023-04-01T07:19:18;90.97;;;14.88;;
56911;SDS011;42800;53.928;27.662;2023-04-01T07:21:48;37.25;;;13.27;;
56911;SDS011;42800;53.928;27.662;2023-04-01T07:24:17;33.17;;;13.55;;
56911;SDS011;42800;53.928;27.662;2023-04-01T07:26:47;31.13;;;12.85;;
56911;SDS011;42800;53.928;27.662;2023-04-01T07:29:18;40.47;;;13.65;;
56911;SDS011;42800;53.928;27.662;2023-04-01T07:31:48;28.88;;;11.35;;
56911;SDS011;42800;53.928;27.662;2023-04-01T07:34:23;33.33;;;12.80;;
56911;SDS011;42800;53.928;27.662;2023-04-01T07:36:53;27.75;;;11.98;;
56911;SDS011;42800;53.928;27.662;2023-04-01T07:39:30;25.58;;;12.27;;
56911;SDS011;42800;53.928;27.662;2023-04-01T07:42:05;21.65;;;11.07;;
56911;SDS011;42800;53.928;27.662;2023-04-01T07:44:40;25.02;;;12.10;;
56911;SDS011;42800;53.928;27.662;2023-04-01T07:47:21;26.67;;;12.00;;
56911;SDS011;42800;53.928;27.662;2023-04-01T07:50:08;23.05;;;12.07;;
56911;SDS011;42800;53.928;27.662;2023-04-01T07:52:42;24.50;;;12.50;;
56911;SDS011;42800;53.928;27.662;2023-04-01T07:55:14;25.63;;;12.85;;
56911;SDS011;42800;53.928;27.662;2023-04-01T07:57:47;30.80;;;14.70;;
56911;SDS011;42800;53.928;27.662;2023-04-01T08:00:19;26.05;;;14.05;;
56911;SDS011;42800;53.928;27.662;2023-04-01T08:05:41;27.23;;;15.75;;
56911;SDS011;42800;53.928;27.662;2023-04-01T08:08:17;31.77;;;17.00;;
56911;SDS011;42800;53.928;27.662;2023-04-01T08:10:46;44.88;;;17.23;;
56911;SDS011;42800;53.928;27.662;2023-04-01T08:13:20;31.52;;;17.35;;
56911;SDS011;42800;53.928;27.662;2023-04-01T08:15:56;27.88;;;15.25;;
56911;SDS011;42800;53.928;27.662;2023-04-01T08:18:35;33.95;;;15.80;;
56911;SDS011;42800;53.928;27.662;2023-04-01T08:21:08;29.80;;;14.80;;
56911;SDS011;42800;53.928;27.662;2023-04-01T08:23:39;25.50;;;14.82;;
56911;SDS011;42800;53.928;27.662;2023-04-01T08:26:10;27.98;;;15.45;;
56911;SDS011;42800;53.928;27.662;2023-04-01T08:28:43;29.90;;;15.70;;
56911;SDS011;42800;53.928;27.662;2023-04-01T08:31:13;29.17;;;15.52;;
56911;SDS011;42800;53.928;27.662;2023-04-01T08:33:44;29.13;;;14.73;;
56911;SDS011;42800;53.928;27.662;2023-04-01T08:39:03;30.17;;;13.15;;
56911;SDS011;42800;53.928;27.662;2023-04-01T08:41:45;21.05;;;12.73;;
56911;SDS011;42800;53.928;27.662;2023-04-01T08:44:42;24.75;;;12.45;;
56911;SDS011;42800;53.928;27.662;2023-04-01T08:50:50;27.38;;;13.20;;
56911;SDS011;42800;53.928;27.662;2023-04-01T08:53:49;19.00;;;11.43;;
56911;SDS011;42800;53.928;27.662;2023-04-01T08:56:34;21.45;;;11.00;;
56911;SDS011;42800;53.928;27.662;2023-04-01T09:02:15;22.65;;;9.68;;
56911;SDS011;42800;53.928;27.662;2023-04-01T09:08:00;16.15;;;7.57;;
56911;SDS011;42800;53.928;27.662;2023-04-01T09:10:43;14.60;;;7.25;;
56911;SDS011;42800;53.928;27.662;2023-04-01T09:13:23;12.43;;;7.50;;
56911;SDS011;42800;53.928;27.662;2023-04-01T09:16:12;13.35;;;6.55;;
56911;SDS011;42800;53.928;27.662;2023-04-01T09:19:12;10.95;;;7.25;;
56911;SDS011;42800;53.928;27.662;2023-04-01T09:24:58;12.88;;;7.85;;
56911;SDS011;42800;53.928;27.662;2023-04-01T09:27:41;11.63;;;7.13;;
56911;SDS011;42800;53.928;27.662;2023-04-01T09:30:24;13.68;;;8.48;;
56911;SDS011;42800;53.928;27.662;2023-04-01T09:36:11;14.82;;;8.32;;
56911;SDS011;42800;53.928;27.662;2023-04-01T09:38:47;12.07;;;7.88;;
56911;SDS011;42800;53.928;27.662;2023-04-01T09:41:24;12.90;;;8.27;;
56911;SDS011;42800;53.928;27.662;2023-04-01T09:43:57;11.05;;;7.75;;
56911;SDS011;42800;53.928;27.662;2023-04-01T09:46:30;13.40;;;8.60;;
56911;SDS011;42800;53.928;27.662;2023-04-01T09:52:18;10.35;;;7.35;;
56911;SDS011;42800;53.928;27.662;2023-04-01T09:54:55;12.00;;;6.97;;
56911;SDS011;42800;53.928;27.662;2023-04-01T09:57:46;11.10;;;6.72;;
56911;SDS011;42800;53.928;27.662;2023-04-01T10:00:55;10.30;;;6.65;;
56911;SDS011;42800;53.928;27.662;2023-04-01T10:03:47;11.83;;;6.83;;
56911;SDS011;42800;53.928;27.662;2023-04-01T10:16:19;15.77;;;8.48;;
56911;SDS011;42800;53.928;27.662;2023-04-01T10:19:03;12.98;;;7.22;;
56911;SDS011;42800;53.928;27.662;2023-04-01T10:21:50;11.00;;;6.25;;
56911;SDS011;42800;53.928;27.662;2023-04-01T10:39:34;15.55;;;9.43;;
56911;SDS011;42800;53.928;27.662;2023-04-01T10:45:38;14.75;;;8.48;;
56911;SDS011;42800;53.928;27.662;2023-04-01T10:51:43;16.50;;;9.27;;
56911;SDS011;42800;53.928;27.662;2023-04-01T10:57:30;16.75;;;10.52;;
56911;SDS011;42800;53.928;27.662;2023-04-01T11:00:14;21.30;;;10.23;;
56911;SDS011;42800;53.928;27.662;2023-04-01T11:03:09;15.55;;;9.70;;
56911;SDS011;42800;53.928;27.662;2023-04-01T11:09:53;18.92;;;10.82;;
56911;SDS011;42800;53.928;27.662;2023-04-01T11:21:52;22.95;;;12.35;;
56911;SDS011;42800;53.928;27.662;2023-04-01T11:24:39;28.23;;;15.20;;
56911;SDS011;42800;53.928;27.662;2023-04-01T11:27:35;21.80;;;12.23;;
56911;SDS011;42800;53.928;27.662;2023-04-01T11:30:18;27.83;;;12.95;;
56911;SDS011;42800;53.928;27.662;2023-04-01T11:32:54;26.17;;;12.32;;
56911;SDS011;42800;53.928;27.662;2023-04-01T11:38:19;20.88;;;11.75;;
56911;SDS011;42800;53.928;27.662;2023-04-01T11:41:12;19.25;;;11.55;;
56911;SDS011;42800;53.928;27.662;2023-04-01T11:43:54;18.80;;;12.05;;
56911;SDS011;42800;53.928;27.662;2023-04-01T11:46:37;18.65;;;11.55;;
56911;SDS011;42800;53.928;27.662;2023-04-01T11:49:16;28.27;;;12.50;;
56911;SDS011;42800;53.928;27.662;2023-04-01T11:52:04;29.17;;;11.65;;
56911;SDS011;42800;53.928;27.662;2023-04-01T11:54:47;25.55;;;12.85;;
56911;SDS011;42800;53.928;27.662;2023-04-01T11:57:41;18.42;;;11.88;;
56911;SDS011;42800;53.928;27.662;2023-04-01T12:00:18;22.25;;;13.15;;
56911;SDS011;42800;53.928;27.662;2023-04-01T12:03:02;20.70;;;12.35;;
56911;SDS011;42800;53.928;27.662;2023-04-01T12:08:13;19.98;;;11.43;;
56911;SDS011;42800;53.928;27.662;2023-04-01T12:10:50;23.88;;;12.55;;
56911;SDS011;42800;53.928;27.662;2023-04-01T12:13:31;21.50;;;11.95;;
56911;SDS011;42800;53.928;27.662;2023-04-01T12:16:13;27.20;;;12.38;;
56911;SDS011;42800;53.928;27.662;2023-04-01T12:18:48;19.65;;;12.40;;
56911;SDS011;42800;53.928;27.662;2023-04-01T12:21:22;18.58;;;12.30;;
56911;SDS011;42800;53.928;27.662;2023-04-01T12:23:57;21.67;;;14.10;;
56911;SDS011;42800;53.928;27.662;2023-04-01T12:26:43;20.50;;;12.52;;
56911;SDS011;42800;53.928;27.662;2023-04-01T12:29:38;22.27;;;12.23;;
56911;SDS011;42800;53.928;27.662;2023-04-01T12:32:30;27.50;;;13.43;;
56911;SDS011;42800;53.928;27.662;2023-04-01T12:35:20;19.27;;;12.27;;
56911;SDS011;42800;53.928;27.662;2023-04-01T12:37:55;23.20;;;12.70;;
56911;SDS011;42800;53.928;27.662;2023-04-01T12:40:46;26.97;;;13.50;;
56911;SDS011;42800;53.928;27.662;2023-04-01T12:43:57;27.35;;;14.10;;
56911;SDS011;42800;53.928;27.662;2023-04-01T12:46:39;23.05;;;13.70;;
56911;SDS011;42800;53.928;27.662;2023-04-01T12:49:25;27.52;;;15.30;;
56911;SDS011;42800;53.928;27.662;2023-04-01T12:52:03;29.98;;;16.27;;
56911;SDS011;42800;53.928;27.662;2023-04-01T13:00:38;30.87;;;17.57;;
56911;SDS011;42800;53.928;27.662;2023-04-01T13:03:33;32.47;;;19.13;;
56911;SDS011;42800;53.928;27.662;2023-04-01T13:06:23;35.47;;;17.88;;
56911;SDS011;42800;53.928;27.662;2023-04-01T13:08:56;33.38;;;19.20;;
56911;SDS011;42800;53.928;27.662;2023-04-01T13:11:35;38.88;;;20.05;;
56911;SDS011;42800;53.928;27.662;2023-04-01T13:14:15;29.77;;;18.40;;
56911;SDS011;42800;53.928;27.662;2023-04-01T13:17:03;36.13;;;19.70;;
56911;SDS011;42800;53.928;27.662;2023-04-01T13:19:39;30.23;;;18.52;;
56911;SDS011;42800;53.928;27.662;2023-04-01T13:22:15;33.45;;;18.67;;
56911;SDS011;42800;53.928;27.662;2023-04-01T13:24:49;30.67;;;18.33;;
56911;SDS011;42800;53.928;27.662;2023-04-01T13:27:23;35.72;;;19.90;;
56911;SDS011;42800;53.928;27.662;2023-04-01T13:30:01;33.05;;;20.42;;
56911;SDS011;42800;53.928;27.662;2023-04-01T13:32:44;32.70;;;19.88;;
56911;SDS011;42800;53.928;27.662;2023-04-01T13:35:20;43.47;;;18.60;;
56911;SDS011;42800;53.928;27.662;2023-04-01T13:37:58;31.17;;;18.85;;
56911;SDS011;42800;53.928;27.662;2023-04-01T13:40:49;27.63;;;17.02;;
56911;SDS011;42800;53.928;27.662;2023-04-01T13:43:23;27.25;;;17.30;;
56911;SDS011;42800;53.928;27.662;2023-04-01T13:46:09;25.30;;;16.55;;
56911;SDS011;42800;53.928;27.662;2023-04-01T13:52:01;27.73;;;16.85;;
56911;SDS011;42800;53.928;27.662;2023-04-01T13:54:53;24.80;;;15.82;;
56911;SDS011;42800;53.928;27.662;2023-04-01T13:57:39;25.67;;;14.50;;
56911;SDS011;42800;53.928;27.662;2023-04-01T14:00:23;30.27;;;16.10;;
56911;SDS011;42800;53.928;27.662;2023-04-01T14:03:03;26.10;;;15.90;;
56911;SDS011;42800;53.928;27.662;2023-04-01T14:05:52;24.48;;;15.93;;
56911;SDS011;42800;53.928;27.662;2023-04-01T14:08:29;25.73;;;15.52;;
56911;SDS011;42800;53.928;27.662;2023-04-01T14:11:10;31.67;;;16.60;;
56911;SDS011;42800;53.928;27.662;2023-04-01T14:13:43;27.63;;;15.65;;
56911;SDS011;42800;53.928;27.662;2023-04-01T14:16:31;31.08;;;17.23;;
56911;SDS011;42800;53.928;27.662;2023-04-01T14:19:12;33.30;;;16.08;;
56911;SDS011;42800;53.928;27.662;2023-04-01T14:21:54;30.00;;;16.88;;
56911;SDS011;42800;53.928;27.662;2023-04-01T14:24:46;29.42;;;16.63;;
56911;SDS011;42800;53.928;27.662;2023-04-01T14:27:35;31.95;;;16.10;;
56911;SDS011;42800;53.928;27.662;2023-04-01T14:30:13;30.60;;;16.45;;
56911;SDS011;42800;53.928;27.662;2023-04-01T14:32:47;34.90;;;17.00;;
56911;SDS011;42800;53.928;27.662;2023-04-01T14:35:27;33.72;;;17.08;;
56911;SDS011;42800;53.928;27.662;2023-04-01T14:38:04;29.00;;;16.90;;
56911;SDS011;42800;53.928;27.662;2023-04-01T14:40:49;32.67;;;17.42;;
56911;SDS011;42800;53.928;27.662;2023-04-01T14:43:25;34.55;;;17.42;;
56911;SDS011;42800;53.928;27.662;2023-04-01T14:49:14;39.15;;;19.55;;
56911;SDS011;42800;53.928;27.662;2023-04-01T14:51:43;32.45;;;18.05;;
56911;SDS011;42800;53.928;27.662;2023-04-01T14:54:13;38.58;;;19.45;;
56911;SDS011;42800;53.928;27.662;2023-04-01T14:56:48;33.05;;;18.35;;
56911;SDS011;42800;53.928;27.662;2023-04-01T14:59:17;34.70;;;19.38;;
56911;SDS011;42800;53.928;27.662;2023-04-01T15:01:55;52.10;;;21.88;;
56911;SDS011;42800;53.928;27.662;2023-04-01T15:07:05;45.17;;;21.95;;
56911;SDS011;42800;53.928;27.662;2023-04-01T15:09:45;66.45;;;24.48;;
56911;SDS011;42800;53.928;27.662;2023-04-01T15:12:23;69.20;;;27.02;;
56911;SDS011;42800;53.928;27.662;2023-04-01T15:14:57;70.60;;;26.50;;
56911;SDS011;42800;53.928;27.662;2023-04-01T15:17:48;93.35;;;27.30;;
56911;SDS011;42800;53.928;27.662;2023-04-01T15:20:33;62.15;;;25.40;;
56911;SDS011;42800;53.928;27.662;2023-04-01T15:23:22;66.18;;;26.63;;
56911;SDS011;42800;53.928;27.662;2023-04-01T15:26:05;82.80;;;25.38;;
56911;SDS011;42800;53.928;27.662;2023-04-01T15:28:45;64.05;;;23.33;;
56911;SDS011;42800;53.928;27.662;2023-04-01T15:31:22;76.60;;;26.35;;
56911;SDS011;42800;53.928;27.662;2023-04-01T15:34:06;81.40;;;25.52;;
56911;SDS011;42800;53.928;27.662;2023-04-01T15:36:43;83.68;;;28.90;;
56911;SDS011;42800;53.928;27.662;2023-04-01T15:39:13;56.83;;;25.73;;
56911;SDS011;42800;53.928;27.662;2023-04-01T15:41:49;67.13;;;26.55;;
56911;SDS011;42800;53.928;27.662;2023-04-01T15:44:42;46.00;;;21.77;;
56911;SDS011;42800;53.928;27.662;2023-04-01T15:47:31;39.83;;;18.60;;
56911;SDS011;42800;53.928;27.662;2023-04-01T15:52:48;55.38;;;19.40;;
56911;SDS011;42800;53.928;27.662;2023-04-01T15:55:23;43.75;;;20.42;;
56911;SDS011;42800;53.928;27.662;2023-04-01T15:58:03;40.90;;;18.73;;
56911;SDS011;42800;53.928;27.662;2023-04-01T16:00:47;46.05;;;18.52;;
56911;SDS011;42800;53.928;27.662;2023-04-01T16:03:21;68.78;;;18.45;;
56911;SDS011;42800;53.928;27.662;2023-04-01T16:06:07;56.70;;;19.02;;
56911;SDS011;42800;53.928;27.662;2023-04-01T16:08:56;45.40;;;20.67;;
56911;SDS011;42800;53.928;27.662;2023-04-01T16:11:42;108.70;;;19.35;;
56911;SDS011;42800;53.928;27.662;2023-04-01T16:14:25;110.78;;;22.67;;
56911;SDS011;42800;53.928;27.662;2023-04-01T16:17:02;82.57;;;18.35;;
56911;SDS011;42800;53.928;27.662;2023-04-01T16:19:39;59.38;;;24.73;;
56911;SDS011;42800;53.928;27.662;2023-04-01T16:22:14;82.95;;;19.52;;
56911;SDS011;42800;53.928;27.662;2023-04-01T16:24:46;65.43;;;25.88;;
56911;SDS011;42800;53.928;27.662;2023-04-01T16:27:22;55.38;;;24.08;;
56911;SDS011;42800;53.928;27.662;2023-04-01T16:29:53;73.75;;;20.63;;
56911;SDS011;42800;53.928;27.662;2023-04-01T16:32:37;44.55;;;21.20;;
56911;SDS011;42800;53.928;27.662;2023-04-01T16:35:15;41.00;;;21.45;;
56911;SDS011;42800;53.928;27.662;2023-04-01T16:37:48;51.45;;;19.05;;